sensor_id;sensor_type;location;lat;lon;timestamp;P1;durP1;ratioP1;P2;durP2;ratioP2
16957;SDS011;8595;52.542;11.974;2023-10-31T00:02:18;8.50;;;4.85;;
16957;SDS011;8595;52.542;11.974;2023-10-31T00:04:45;6.78;;;5.43;;
16957;SDS011;8595;52.542;11.974;2023-10-31T00:07:12;7.55;;;5.38;;
16957;SDS011;8595;52.542;11.974;2023-10-31T00:09:39;7.22;;;5.15;;
16957;SDS011;8595;52.542;11.974;2023-10-31T00:12:06;6.22;;;4.78;;
16957;SDS011;8595;52.542;11.974;2023-10-31T00:14:33;5.75;;;4.55;;
16957;SDS011;8595;52.542;11.974;2023-10-31T00:17:00;6.45;;;4.45;;
16957;SDS011;8595;52.542;11.974;2023-10-31T00:19:29;9.20;;;5.40;;
16957;SDS011;8595;52.542;11.974;2023-10-31T00:21:56;9.27;;;4.95;;
16957;SDS011;8595;52.542;11.974;2023-10-31T00:24:23;6.45;;;5.10;;
16957;SDS011;8595;52.542;11.974;2023-10-31T00:26:52;5.15;;;4.65;;
16957;SDS011;8595;52.542;11.974;2023-10-31T00:29:18;8.13;;;4.90;;
16957;SDS011;8595;52.542;11.974;2023-10-31T00:31:45;7.38;;;4.78;;
16957;SDS011;8595;52.542;11.974;2023-10-31T00:34:12;10.85;;;5.25;;
16957;SDS011;8595;52.542;11.974;2023-10-31T00:36:40;9.50;;;6.53;;
16957;SDS011;8595;52.542;11.974;2023-10-31T00:39:08;9.98;;;7.38;;
16957;SDS011;8595;52.542;11.974;2023-10-31T00:41:35;11.95;;;7.93;;
16957;SDS011;8595;52.542;11.974;2023-10-31T00:44:01;11.55;;;7.60;;
16957;SDS011;8595;52.542;11.974;2023-10-31T00:46:28;15.90;;;8.25;;
16957;SDS011;8595;52.542;11.974;2023-10-31T00:48:56;10.80;;;6.93;;
16957;SDS011;8595;52.542;11.974;2023-10-31T00:51:23;7.50;;;6.30;;
16957;SDS011;8595;52.542;11.974;2023-10-31T00:53:51;7.82;;;5.90;;
16957;SDS011;8595;52.542;11.974;2023-10-31T00:56:20;8.23;;;6.80;;
16957;SDS011;8595;52.542;11.974;2023-10-31T00:58:48;9.48;;;6.75;;
16957;SDS011;8595;52.542;11.974;2023-10-31T01:01:15;11.15;;;6.82;;
16957;SDS011;8595;52.542;11.974;2023-10-31T01:03:42;9.05;;;6.03;;
16957;SDS011;8595;52.542;11.974;2023-10-31T01:06:08;9.65;;;6.75;;
16957;SDS011;8595;52.542;11.974;2023-10-31T01:08:35;8.63;;;6.45;;
16957;SDS011;8595;52.542;11.974;2023-10-31T01:11:04;8.60;;;6.75;;
16957;SDS011;8595;52.542;11.974;2023-10-31T01:13:31;10.15;;;5.00;;
16957;SDS011;8595;52.542;11.974;2023-10-31T01:15:59;8.52;;;5.50;;
16957;SDS011;8595;52.542;11.974;2023-10-31T01:18:27;8.38;;;5.43;;
16957;SDS011;8595;52.542;11.974;2023-10-31T01:20:53;5.82;;;5.10;;
16957;SDS011;8595;52.542;11.974;2023-10-31T01:23:20;7.28;;;6.07;;
16957;SDS011;8595;52.542;11.974;2023-10-31T01:25:49;9.75;;;6.70;;
16957;SDS011;8595;52.542;11.974;2023-10-31T01:28:18;8.82;;;6.20;;
16957;SDS011;8595;52.542;11.974;2023-10-31T01:30:44;11.88;;;6.50;;
16957;SDS011;8595;52.542;11.974;2023-10-31T01:33:11;11.20;;;6.80;;
16957;SDS011;8595;52.542;11.974;2023-10-31T01:35:38;9.13;;;6.63;;
16957;SDS011;8595;52.542;11.974;2023-10-31T01:38:06;6.15;;;4.93;;
16957;SDS011;8595;52.542;11.974;2023-10-31T01:40:33;5.97;;;5.38;;
16957;SDS011;8595;52.542;11.974;2023-10-31T01:42:59;6.93;;;6.07;;
16957;SDS011;8595;52.542;11.974;2023-10-31T01:45:27;9.15;;;6.72;;
16957;SDS011;8595;52.542;11.974;2023-10-31T01:47:54;9.27;;;7.55;;
16957;SDS011;8595;52.542;11.974;2023-10-31T01:50:21;13.85;;;9.43;;
16957;SDS011;8595;52.542;11.974;2023-10-31T01:52:48;13.75;;;9.40;;
16957;SDS011;8595;52.542;11.974;2023-10-31T01:55:15;11.90;;;6.95;;
16957;SDS011;8595;52.542;11.974;2023-10-31T01:57:43;12.68;;;7.00;;
16957;SDS011;8595;52.542;11.974;2023-10-31T02:00:12;8.30;;;6.00;;
16957;SDS011;8595;52.542;11.974;2023-10-31T02:02:41;16.13;;;6.60;;
16957;SDS011;8595;52.542;11.974;2023-10-31T02:05:09;17.20;;;10.10;;
16957;SDS011;8595;52.542;11.974;2023-10-31T02:07:36;14.20;;;9.20;;
16957;SDS011;8595;52.542;11.974;2023-10-31T02:10:03;13.50;;;8.43;;
16957;SDS011;8595;52.542;11.974;2023-10-31T02:12:33;16.20;;;9.48;;
16957;SDS011;8595;52.542;11.974;2023-10-31T02:15:02;11.82;;;7.80;;
16957;SDS011;8595;52.542;11.974;2023-10-31T02:17:30;10.30;;;8.38;;
16957;SDS011;8595;52.542;11.974;2023-10-31T02:19:58;10.30;;;8.38;;
16957;SDS011;8595;52.542;11.974;2023-10-31T02:22:26;15.15;;;10.07;;
16957;SDS011;8595;52.542;11.974;2023-10-31T02:24:53;12.90;;;11.15;;
16957;SDS011;8595;52.542;11.974;2023-10-31T02:27:21;15.07;;;11.57;;
16957;SDS011;8595;52.542;11.974;2023-10-31T02:29:48;12.93;;;9.45;;
16957;SDS011;8595;52.542;11.974;2023-10-31T02:32:14;17.60;;;11.55;;
16957;SDS011;8595;52.542;11.974;2023-10-31T02:34:41;12.52;;;9.15;;
16957;SDS011;8595;52.542;11.974;2023-10-31T02:37:09;11.98;;;10.02;;
16957;SDS011;8595;52.542;11.974;2023-10-31T02:39:37;15.27;;;11.77;;
16957;SDS011;8595;52.542;11.974;2023-10-31T02:42:04;14.30;;;9.70;;
16957;SDS011;8595;52.542;11.974;2023-10-31T02:44:31;11.52;;;10.07;;
16957;SDS011;8595;52.542;11.974;2023-10-31T02:46:58;11.15;;;9.95;;
16957;SDS011;8595;52.542;11.974;2023-10-31T02:49:25;11.73;;;9.48;;
16957;SDS011;8595;52.542;11.974;2023-10-31T02:51:51;15.40;;;10.15;;
16957;SDS011;8595;52.542;11.974;2023-10-31T02:54:18;10.30;;;9.23;;
16957;SDS011;8595;52.542;11.974;2023-10-31T02:56:46;11.43;;;10.10;;
16957;SDS011;8595;52.542;11.974;2023-10-31T02:59:13;15.13;;;11.10;;
16957;SDS011;8595;52.542;11.974;2023-10-31T03:01:40;14.77;;;12.30;;
16957;SDS011;8595;52.542;11.974;2023-10-31T03:04:07;12.88;;;10.70;;
16957;SDS011;8595;52.542;11.974;2023-10-31T03:06:33;14.40;;;12.48;;
16957;SDS011;8595;52.542;11.974;2023-10-31T03:09:00;11.20;;;9.57;;
16957;SDS011;8595;52.542;11.974;2023-10-31T03:11:27;18.95;;;14.10;;
16957;SDS011;8595;52.542;11.974;2023-10-31T03:13:55;14.18;;;12.35;;
16957;SDS011;8595;52.542;11.974;2023-10-31T03:16:23;17.00;;;13.95;;
16957;SDS011;8595;52.542;11.974;2023-10-31T03:18:50;18.58;;;16.08;;
16957;SDS011;8595;52.542;11.974;2023-10-31T03:21:17;16.88;;;14.57;;
16957;SDS011;8595;52.542;11.974;2023-10-31T03:23:46;19.23;;;16.58;;
16957;SDS011;8595;52.542;11.974;2023-10-31T03:26:14;14.85;;;13.27;;
16957;SDS011;8595;52.542;11.974;2023-10-31T03:28:42;16.60;;;14.38;;
16957;SDS011;8595;52.542;11.974;2023-10-31T03:31:10;17.00;;;14.65;;
16957;SDS011;8595;52.542;11.974;2023-10-31T03:33:38;18.10;;;16.20;;
16957;SDS011;8595;52.542;11.974;2023-10-31T03:36:05;12.77;;;11.50;;
16957;SDS011;8595;52.542;11.974;2023-10-31T03:38:33;18.65;;;15.88;;
16957;SDS011;8595;52.542;11.974;2023-10-31T03:41:00;21.65;;;17.15;;
16957;SDS011;8595;52.542;11.974;2023-10-31T03:43:27;13.38;;;12.05;;
16957;SDS011;8595;52.542;11.974;2023-10-31T03:45:54;15.98;;;13.38;;
16957;SDS011;8595;52.542;11.974;2023-10-31T03:48:22;21.70;;;17.90;;
16957;SDS011;8595;52.542;11.974;2023-10-31T03:50:50;18.25;;;15.60;;
16957;SDS011;8595;52.542;11.974;2023-10-31T03:53:18;19.00;;;16.60;;
16957;SDS011;8595;52.542;11.974;2023-10-31T03:55:45;20.17;;;16.90;;
16957;SDS011;8595;52.542;11.974;2023-10-31T03:58:12;19.63;;;15.70;;
16957;SDS011;8595;52.542;11.974;2023-10-31T04:00:39;22.05;;;18.63;;
16957;SDS011;8595;52.542;11.974;2023-10-31T04:03:06;17.08;;;14.85;;
16957;SDS011;8595;52.542;11.974;2023-10-31T04:05:34;18.90;;;15.57;;
16957;SDS011;8595;52.542;11.974;2023-10-31T04:08:01;21.42;;;18.95;;
16957;SDS011;8595;52.542;11.974;2023-10-31T04:10:28;20.60;;;16.45;;
16957;SDS011;8595;52.542;11.974;2023-10-31T04:12:55;26.35;;;20.17;;
16957;SDS011;8595;52.542;11.974;2023-10-31T04:15:22;19.20;;;17.02;;
16957;SDS011;8595;52.542;11.974;2023-10-31T04:17:48;29.25;;;22.52;;
16957;SDS011;8595;52.542;11.974;2023-10-31T04:20:15;16.98;;;14.25;;
16957;SDS011;8595;52.542;11.974;2023-10-31T04:22:44;20.90;;;17.08;;
16957;SDS011;8595;52.542;11.974;2023-10-31T04:25:11;33.90;;;23.23;;
16957;SDS011;8595;52.542;11.974;2023-10-31T04:27:38;27.83;;;20.02;;
16957;SDS011;8595;52.542;11.974;2023-10-31T04:30:05;27.80;;;20.48;;
16957;SDS011;8595;52.542;11.974;2023-10-31T04:32:32;28.05;;;20.02;;
16957;SDS011;8595;52.542;11.974;2023-10-31T04:34:59;28.92;;;21.50;;
16957;SDS011;8595;52.542;11.974;2023-10-31T04:37:26;24.88;;;19.70;;
16957;SDS011;8595;52.542;11.974;2023-10-31T04:39:54;22.48;;;16.92;;
16957;SDS011;8595;52.542;11.974;2023-10-31T04:42:21;29.80;;;21.00;;
16957;SDS011;8595;52.542;11.974;2023-10-31T04:44:48;25.65;;;20.15;;
16957;SDS011;8595;52.542;11.974;2023-10-31T04:47:15;28.95;;;21.50;;
16957;SDS011;8595;52.542;11.974;2023-10-31T04:49:42;34.05;;;24.10;;
16957;SDS011;8595;52.542;11.974;2023-10-31T04:52:08;39.63;;;24.73;;
16957;SDS011;8595;52.542;11.974;2023-10-31T04:54:35;32.15;;;21.80;;
16957;SDS011;8595;52.542;11.974;2023-10-31T04:57:03;24.40;;;18.40;;
16957;SDS011;8595;52.542;11.974;2023-10-31T04:59:30;32.92;;;22.30;;
16957;SDS011;8595;52.542;11.974;2023-10-31T05:01:57;27.27;;;17.90;;
16957;SDS011;8595;52.542;11.974;2023-10-31T05:04:24;32.33;;;23.38;;
16957;SDS011;8595;52.542;11.974;2023-10-31T05:06:51;32.50;;;23.45;;
16957;SDS011;8595;52.542;11.974;2023-10-31T05:09:18;32.25;;;22.73;;
16957;SDS011;8595;52.542;11.974;2023-10-31T05:11:45;26.13;;;18.70;;
16957;SDS011;8595;52.542;11.974;2023-10-31T05:14:14;30.73;;;21.13;;
16957;SDS011;8595;52.542;11.974;2023-10-31T05:16:40;40.13;;;28.17;;
16957;SDS011;8595;52.542;11.974;2023-10-31T05:19:07;34.60;;;24.60;;
16957;SDS011;8595;52.542;11.974;2023-10-31T05:21:34;25.95;;;19.98;;
16957;SDS011;8595;52.542;11.974;2023-10-31T05:24:01;23.95;;;18.38;;
16957;SDS011;8595;52.542;11.974;2023-10-31T05:26:29;27.33;;;19.95;;
16957;SDS011;8595;52.542;11.974;2023-10-31T05:28:56;25.02;;;18.98;;
16957;SDS011;8595;52.542;11.974;2023-10-31T05:31:24;33.70;;;26.05;;
16957;SDS011;8595;52.542;11.974;2023-10-31T05:33:51;25.30;;;19.00;;
16957;SDS011;8595;52.542;11.974;2023-10-31T05:36:18;29.42;;;20.05;;
16957;SDS011;8595;52.542;11.974;2023-10-31T05:38:45;30.80;;;23.08;;
16957;SDS011;8595;52.542;11.974;2023-10-31T05:41:13;28.98;;;19.55;;
16957;SDS011;8595;52.542;11.974;2023-10-31T05:43:40;26.30;;;20.23;;
16957;SDS011;8595;52.542;11.974;2023-10-31T05:46:06;29.63;;;22.23;;
16957;SDS011;8595;52.542;11.974;2023-10-31T05:48:36;29.25;;;21.42;;
16957;SDS011;8595;52.542;11.974;2023-10-31T05:51:04;32.75;;;20.77;;
16957;SDS011;8595;52.542;11.974;2023-10-31T05:53:32;29.30;;;20.83;;
16957;SDS011;8595;52.542;11.974;2023-10-31T05:55:59;37.28;;;25.15;;
16957;SDS011;8595;52.542;11.974;2023-10-31T05:58:26;26.52;;;18.85;;
16957;SDS011;8595;52.542;11.974;2023-10-31T06:00:53;19.13;;;15.98;;
16957;SDS011;8595;52.542;11.974;2023-10-31T06:03:22;19.40;;;16.20;;
16957;SDS011;8595;52.542;11.974;2023-10-31T06:05:50;20.98;;;14.05;;
16957;SDS011;8595;52.542;11.974;2023-10-31T06:08:16;16.38;;;10.38;;
16957;SDS011;8595;52.542;11.974;2023-10-31T06:10:44;11.10;;;9.20;;
16957;SDS011;8595;52.542;11.974;2023-10-31T06:13:11;9.27;;;8.30;;
16957;SDS011;8595;52.542;11.974;2023-10-31T06:15:38;9.27;;;7.05;;
16957;SDS011;8595;52.542;11.974;2023-10-31T06:18:04;7.72;;;6.03;;
16957;SDS011;8595;52.542;11.974;2023-10-31T06:20:32;5.82;;;5.28;;
16957;SDS011;8595;52.542;11.974;2023-10-31T06:23:02;5.95;;;4.80;;
16957;SDS011;8595;52.542;11.974;2023-10-31T06:25:29;8.88;;;4.80;;
16957;SDS011;8595;52.542;11.974;2023-10-31T06:27:56;4.88;;;4.38;;
16957;SDS011;8595;52.542;11.974;2023-10-31T06:30:22;5.35;;;4.28;;
16957;SDS011;8595;52.542;11.974;2023-10-31T06:32:50;4.43;;;4.03;;
16957;SDS011;8595;52.542;11.974;2023-10-31T06:35:17;4.32;;;3.92;;
16957;SDS011;8595;52.542;11.974;2023-10-31T06:37:44;3.05;;;2.85;;
16957;SDS011;8595;52.542;11.974;2023-10-31T06:40:12;3.70;;;3.40;;
16957;SDS011;8595;52.542;11.974;2023-10-31T06:42:39;3.20;;;2.90;;
16957;SDS011;8595;52.542;11.974;2023-10-31T06:45:05;3.47;;;3.05;;
16957;SDS011;8595;52.542;11.974;2023-10-31T06:47:33;4.35;;;3.08;;
16957;SDS011;8595;52.542;11.974;2023-10-31T06:49:59;4.05;;;2.97;;
16957;SDS011;8595;52.542;11.974;2023-10-31T06:52:26;2.45;;;2.25;;
16957;SDS011;8595;52.542;11.974;2023-10-31T06:54:53;2.63;;;2.42;;
16957;SDS011;8595;52.542;11.974;2023-10-31T06:57:21;3.58;;;2.15;;
16957;SDS011;8595;52.542;11.974;2023-10-31T06:59:48;2.00;;;1.80;;
16957;SDS011;8595;52.542;11.974;2023-10-31T07:02:15;3.83;;;2.03;;
16957;SDS011;8595;52.542;11.974;2023-10-31T07:04:41;2.30;;;1.92;;
16957;SDS011;8595;52.542;11.974;2023-10-31T07:07:08;3.03;;;1.88;;
16957;SDS011;8595;52.542;11.974;2023-10-31T07:09:36;2.42;;;2.22;;
16957;SDS011;8595;52.542;11.974;2023-10-31T07:12:04;2.22;;;2.05;;
16957;SDS011;8595;52.542;11.974;2023-10-31T07:14:33;6.38;;;2.20;;
16957;SDS011;8595;52.542;11.974;2023-10-31T07:16:59;2.58;;;1.65;;
16957;SDS011;8595;52.542;11.974;2023-10-31T07:19:26;2.33;;;1.90;;
16957;SDS011;8595;52.542;11.974;2023-10-31T07:21:53;1.90;;;1.70;;
16957;SDS011;8595;52.542;11.974;2023-10-31T07:24:20;1.60;;;1.50;;
16957;SDS011;8595;52.542;11.974;2023-10-31T07:26:47;1.48;;;1.38;;
16957;SDS011;8595;52.542;11.974;2023-10-31T07:29:14;1.40;;;1.30;;
16957;SDS011;8595;52.542;11.974;2023-10-31T07:31:42;2.80;;;1.50;;
16957;SDS011;8595;52.542;11.974;2023-10-31T07:34:08;3.58;;;1.50;;
16957;SDS011;8595;52.542;11.974;2023-10-31T07:36:36;5.00;;;1.40;;
16957;SDS011;8595;52.542;11.974;2023-10-31T07:39:04;1.77;;;1.40;;
16957;SDS011;8595;52.542;11.974;2023-10-31T07:41:31;1.80;;;1.70;;
16957;SDS011;8595;52.542;11.974;2023-10-31T07:43:58;1.25;;;1.15;;
16957;SDS011;8595;52.542;11.974;2023-10-31T07:46:25;1.42;;;1.33;;
16957;SDS011;8595;52.542;11.974;2023-10-31T07:48:53;1.70;;;1.60;;
16957;SDS011;8595;52.542;11.974;2023-10-31T07:51:19;2.20;;;2.00;;
16957;SDS011;8595;52.542;11.974;2023-10-31T07:53:46;5.15;;;3.50;;
16957;SDS011;8595;52.542;11.974;2023-10-31T07:56:15;3.67;;;2.40;;
16957;SDS011;8595;52.542;11.974;2023-10-31T07:58:42;1.20;;;1.10;;
16957;SDS011;8595;52.542;11.974;2023-10-31T08:01:10;2.78;;;1.42;;
16957;SDS011;8595;52.542;11.974;2023-10-31T08:03:37;2.97;;;1.73;;
16957;SDS011;8595;52.542;11.974;2023-10-31T08:06:06;5.03;;;2.42;;
16957;SDS011;8595;52.542;11.974;2023-10-31T08:08:33;2.30;;;1.50;;
16957;SDS011;8595;52.542;11.974;2023-10-31T08:11:00;3.58;;;2.25;;
16957;SDS011;8595;52.542;11.974;2023-10-31T08:13:27;2.10;;;1.77;;
16957;SDS011;8595;52.542;11.974;2023-10-31T08:15:53;4.07;;;1.50;;
16957;SDS011;8595;52.542;11.974;2023-10-31T08:20:47;7.90;;;1.70;;
16957;SDS011;8595;52.542;11.974;2023-10-31T08:23:17;2.35;;;1.40;;
16957;SDS011;8595;52.542;11.974;2023-10-31T08:25:44;1.83;;;1.35;;
16957;SDS011;8595;52.542;11.974;2023-10-31T08:28:11;1.50;;;1.30;;
16957;SDS011;8595;52.542;11.974;2023-10-31T08:30:38;8.20;;;1.75;;
16957;SDS011;8595;52.542;11.974;2023-10-31T08:33:05;1.40;;;1.30;;
16957;SDS011;8595;52.542;11.974;2023-10-31T08:35:31;2.35;;;1.90;;
16957;SDS011;8595;52.542;11.974;2023-10-31T08:37:59;4.28;;;2.00;;
16957;SDS011;8595;52.542;11.974;2023-10-31T08:40:27;2.03;;;1.80;;
16957;SDS011;8595;52.542;11.974;2023-10-31T08:42:54;4.43;;;1.50;;
16957;SDS011;8595;52.542;11.974;2023-10-31T08:45:21;3.05;;;1.70;;
16957;SDS011;8595;52.542;11.974;2023-10-31T08:47:49;1.65;;;1.50;;
16957;SDS011;8595;52.542;11.974;2023-10-31T08:50:16;1.90;;;1.70;;
16957;SDS011;8595;52.542;11.974;2023-10-31T08:52:43;8.18;;;1.80;;
16957;SDS011;8595;52.542;11.974;2023-10-31T08:55:09;2.95;;;1.30;;
16957;SDS011;8595;52.542;11.974;2023-10-31T08:57:38;2.25;;;1.52;;
16957;SDS011;8595;52.542;11.974;2023-10-31T09:00:05;11.88;;;1.88;;
16957;SDS011;8595;52.542;11.974;2023-10-31T09:02:32;2.80;;;1.90;;
16957;SDS011;8595;52.542;11.974;2023-10-31T09:04:59;1.90;;;1.80;;
16957;SDS011;8595;52.542;11.974;2023-10-31T09:07:26;3.35;;;1.92;;
16957;SDS011;8595;52.542;11.974;2023-10-31T09:09:54;5.72;;;1.85;;
16957;SDS011;8595;52.542;11.974;2023-10-31T09:12:21;2.63;;;1.55;;
16957;SDS011;8595;52.542;11.974;2023-10-31T09:14:49;4.00;;;1.80;;
16957;SDS011;8595;52.542;11.974;2023-10-31T09:17:15;6.05;;;1.70;;
16957;SDS011;8595;52.542;11.974;2023-10-31T09:19:42;3.47;;;1.67;;
16957;SDS011;8595;52.542;11.974;2023-10-31T09:22:09;1.90;;;1.60;;
16957;SDS011;8595;52.542;11.974;2023-10-31T09:24:36;5.57;;;2.58;;
16957;SDS011;8595;52.542;11.974;2023-10-31T09:27:04;2.42;;;1.40;;
16957;SDS011;8595;52.542;11.974;2023-10-31T09:29:31;7.53;;;2.33;;
16957;SDS011;8595;52.542;11.974;2023-10-31T09:32:00;3.50;;;2.03;;
16957;SDS011;8595;52.542;11.974;2023-10-31T09:34:26;5.00;;;2.60;;
16957;SDS011;8595;52.542;11.974;2023-10-31T09:36:54;2.75;;;2.10;;
16957;SDS011;8595;52.542;11.974;2023-10-31T09:39:22;2.13;;;1.50;;
16957;SDS011;8595;52.542;11.974;2023-10-31T09:41:49;1.90;;;1.70;;
16957;SDS011;8595;52.542;11.974;2023-10-31T09:44:16;2.58;;;1.65;;
16957;SDS011;8595;52.542;11.974;2023-10-31T09:46:44;3.95;;;2.00;;
16957;SDS011;8595;52.542;11.974;2023-10-31T09:49:14;3.15;;;1.98;;
16957;SDS011;8595;52.542;11.974;2023-10-31T09:51:42;3.72;;;1.70;;
16957;SDS011;8595;52.542;11.974;2023-10-31T09:54:09;3.17;;;1.80;;
16957;SDS011;8595;52.542;11.974;2023-10-31T09:56:38;2.10;;;1.90;;
16957;SDS011;8595;52.542;11.974;2023-10-31T09:59:06;2.72;;;2.22;;
16957;SDS011;8595;52.542;11.974;2023-10-31T10:01:32;3.40;;;2.10;;
16957;SDS011;8595;52.542;11.974;2023-10-31T10:03:59;2.47;;;2.10;;
16957;SDS011;8595;52.542;11.974;2023-10-31T10:06:27;7.35;;;2.80;;
16957;SDS011;8595;52.542;11.974;2023-10-31T10:08:55;3.60;;;2.30;;
16957;SDS011;8595;52.542;11.974;2023-10-31T10:11:22;2.15;;;1.73;;
16957;SDS011;8595;52.542;11.974;2023-10-31T10:13:51;3.03;;;2.60;;
16957;SDS011;8595;52.542;11.974;2023-10-31T10:16:27;4.20;;;2.38;;
16957;SDS011;8595;52.542;11.974;2023-10-31T10:18:55;3.15;;;2.47;;
16957;SDS011;8595;52.542;11.974;2023-10-31T10:21:22;3.92;;;2.60;;
16957;SDS011;8595;52.542;11.974;2023-10-31T10:23:52;2.25;;;2.05;;
16957;SDS011;8595;52.542;11.974;2023-10-31T10:26:20;3.15;;;2.45;;
16957;SDS011;8595;52.542;11.974;2023-10-31T10:28:50;4.13;;;2.08;;
16957;SDS011;8595;52.542;11.974;2023-10-31T10:31:18;3.75;;;2.10;;
16957;SDS011;8595;52.542;11.974;2023-10-31T10:33:45;6.07;;;1.88;;
16957;SDS011;8595;52.542;11.974;2023-10-31T10:36:12;2.40;;;1.80;;
16957;SDS011;8595;52.542;11.974;2023-10-31T10:38:41;2.78;;;1.65;;
16957;SDS011;8595;52.542;11.974;2023-10-31T10:41:14;2.15;;;1.95;;
16957;SDS011;8595;52.542;11.974;2023-10-31T10:43:44;1.65;;;1.55;;
16957;SDS011;8595;52.542;11.974;2023-10-31T10:46:16;2.75;;;1.55;;
16957;SDS011;8595;52.542;11.974;2023-10-31T10:48:46;1.00;;;1.00;;
16957;SDS011;8595;52.542;11.974;2023-10-31T10:51:14;6.15;;;1.67;;
16957;SDS011;8595;52.542;11.974;2023-10-31T10:53:48;2.65;;;1.20;;
16957;SDS011;8595;52.542;11.974;2023-10-31T10:56:19;2.15;;;1.10;;
16957;SDS011;8595;52.542;11.974;2023-10-31T10:59:01;1.70;;;1.20;;
16957;SDS011;8595;52.542;11.974;2023-10-31T11:01:30;1.42;;;1.33;;
16957;SDS011;8595;52.542;11.974;2023-10-31T11:03:58;1.50;;;1.40;;
16957;SDS011;8595;52.542;11.974;2023-10-31T11:06:26;3.85;;;1.42;;
16957;SDS011;8595;52.542;11.974;2023-10-31T11:08:54;1.65;;;1.20;;
16957;SDS011;8595;52.542;11.974;2023-10-31T11:11:23;1.70;;;1.27;;
16957;SDS011;8595;52.542;11.974;2023-10-31T11:13:51;1.23;;;1.10;;
16957;SDS011;8595;52.542;11.974;2023-10-31T11:16:20;2.03;;;1.20;;
16957;SDS011;8595;52.542;11.974;2023-10-31T11:18:55;2.08;;;1.20;;
16957;SDS011;8595;52.542;11.974;2023-10-31T11:21:22;2.45;;;1.60;;
16957;SDS011;8595;52.542;11.974;2023-10-31T11:23:56;1.67;;;1.40;;
16957;SDS011;8595;52.542;11.974;2023-10-31T11:26:26;1.42;;;1.20;;
16957;SDS011;8595;52.542;11.974;2023-10-31T11:29:02;1.58;;;1.10;;
16957;SDS011;8595;52.542;11.974;2023-10-31T11:31:30;1.05;;;1.00;;
16957;SDS011;8595;52.542;11.974;2023-10-31T11:33:57;3.47;;;1.20;;
16957;SDS011;8595;52.542;11.974;2023-10-31T11:36:26;2.63;;;1.20;;
16957;SDS011;8595;52.542;11.974;2023-10-31T11:38:54;1.50;;;1.40;;
16957;SDS011;8595;52.542;11.974;2023-10-31T11:41:38;1.25;;;1.13;;
16957;SDS011;8595;52.542;11.974;2023-10-31T11:44:05;1.70;;;1.23;;
16957;SDS011;8595;52.542;11.974;2023-10-31T11:46:32;1.45;;;1.00;;
16957;SDS011;8595;52.542;11.974;2023-10-31T11:48:58;1.90;;;0.90;;
16957;SDS011;8595;52.542;11.974;2023-10-31T11:51:27;1.48;;;1.20;;
16957;SDS011;8595;52.542;11.974;2023-10-31T11:53:53;2.00;;;1.20;;
16957;SDS011;8595;52.542;11.974;2023-10-31T11:56:20;1.90;;;1.70;;
16957;SDS011;8595;52.542;11.974;2023-10-31T11:58:59;1.92;;;1.63;;
16957;SDS011;8595;52.542;11.974;2023-10-31T12:01:27;1.98;;;1.60;;
16957;SDS011;8595;52.542;11.974;2023-10-31T12:03:54;1.42;;;1.30;;
16957;SDS011;8595;52.542;11.974;2023-10-31T12:06:21;1.33;;;1.23;;
16957;SDS011;8595;52.542;11.974;2023-10-31T12:08:48;1.75;;;1.10;;
16957;SDS011;8595;52.542;11.974;2023-10-31T12:11:15;1.45;;;1.35;;
16957;SDS011;8595;52.542;11.974;2023-10-31T12:13:52;1.40;;;1.30;;
16957;SDS011;8595;52.542;11.974;2023-10-31T12:16:24;1.13;;;1.10;;
16957;SDS011;8595;52.542;11.974;2023-10-31T12:18:55;1.30;;;1.20;;
16957;SDS011;8595;52.542;11.974;2023-10-31T12:21:37;1.40;;;1.30;;
16957;SDS011;8595;52.542;11.974;2023-10-31T12:24:07;1.48;;;1.15;;
16957;SDS011;8595;52.542;11.974;2023-10-31T12:26:36;1.05;;;1.05;;
16957;SDS011;8595;52.542;11.974;2023-10-31T12:29:06;1.38;;;1.20;;
16957;SDS011;8595;52.542;11.974;2023-10-31T12:31:38;1.95;;;1.17;;
16957;SDS011;8595;52.542;11.974;2023-10-31T12:34:05;1.65;;;1.10;;
16957;SDS011;8595;52.542;11.974;2023-10-31T12:36:34;2.15;;;1.02;;
16957;SDS011;8595;52.542;11.974;2023-10-31T12:39:02;3.20;;;1.10;;
16957;SDS011;8595;52.542;11.974;2023-10-31T12:41:31;1.00;;;1.00;;
16957;SDS011;8595;52.542;11.974;2023-10-31T12:43:58;1.08;;;1.00;;
16957;SDS011;8595;52.542;11.974;2023-10-31T12:46:27;1.15;;;0.93;;
16957;SDS011;8595;52.542;11.974;2023-10-31T12:48:56;1.60;;;1.20;;
16957;SDS011;8595;52.542;11.974;2023-10-31T12:51:23;1.63;;;1.00;;
16957;SDS011;8595;52.542;11.974;2023-10-31T12:53:52;1.48;;;1.33;;
16957;SDS011;8595;52.542;11.974;2023-10-31T12:56:34;2.05;;;1.65;;
16957;SDS011;8595;52.542;11.974;2023-10-31T12:59:06;1.20;;;1.13;;
16957;SDS011;8595;52.542;11.974;2023-10-31T13:01:34;2.55;;;1.25;;
16957;SDS011;8595;52.542;11.974;2023-10-31T13:04:03;1.42;;;1.20;;
16957;SDS011;8595;52.542;11.974;2023-10-31T13:06:32;3.75;;;1.75;;
16957;SDS011;8595;52.542;11.974;2023-10-31T13:08:59;3.10;;;1.73;;
16957;SDS011;8595;52.542;11.974;2023-10-31T13:11:29;1.23;;;1.13;;
16957;SDS011;8595;52.542;11.974;2023-10-31T13:13:56;1.63;;;1.52;;
16957;SDS011;8595;52.542;11.974;2023-10-31T13:16:24;3.88;;;1.63;;
16957;SDS011;8595;52.542;11.974;2023-10-31T13:18:53;2.65;;;1.30;;
16957;SDS011;8595;52.542;11.974;2023-10-31T13:21:21;1.30;;;1.15;;
16957;SDS011;8595;52.542;11.974;2023-10-31T13:23:48;1.90;;;1.10;;
16957;SDS011;8595;52.542;11.974;2023-10-31T13:26:15;2.15;;;1.60;;
16957;SDS011;8595;52.542;11.974;2023-10-31T13:28:42;2.47;;;1.40;;
16957;SDS011;8595;52.542;11.974;2023-10-31T13:31:09;2.35;;;1.55;;
16957;SDS011;8595;52.542;11.974;2023-10-31T13:33:36;1.70;;;1.30;;
16957;SDS011;8595;52.542;11.974;2023-10-31T13:36:03;2.83;;;1.48;;
16957;SDS011;8595;52.542;11.974;2023-10-31T13:38:32;14.45;;;3.90;;
16957;SDS011;8595;52.542;11.974;2023-10-31T13:41:00;3.38;;;2.60;;
16957;SDS011;8595;52.542;11.974;2023-10-31T13:43:27;3.00;;;2.42;;
16957;SDS011;8595;52.542;11.974;2023-10-31T13:45:54;1.80;;;1.70;;
16957;SDS011;8595;52.542;11.974;2023-10-31T13:48:22;7.25;;;1.88;;
16957;SDS011;8595;52.542;11.974;2023-10-31T13:50:49;3.70;;;2.58;;
16957;SDS011;8595;52.542;11.974;2023-10-31T13:53:15;1.98;;;1.77;;
16957;SDS011;8595;52.542;11.974;2023-10-31T13:55:43;2.25;;;1.70;;
16957;SDS011;8595;52.542;11.974;2023-10-31T13:58:10;3.72;;;2.03;;
16957;SDS011;8595;52.542;11.974;2023-10-31T14:00:37;3.15;;;2.63;;
16957;SDS011;8595;52.542;11.974;2023-10-31T14:03:04;3.60;;;1.52;;
16957;SDS011;8595;52.542;11.974;2023-10-31T14:05:31;2.78;;;1.40;;
16957;SDS011;8595;52.542;11.974;2023-10-31T14:07:58;2.10;;;1.90;;
16957;SDS011;8595;52.542;11.974;2023-10-31T14:10:25;4.45;;;2.13;;
16957;SDS011;8595;52.542;11.974;2023-10-31T14:12:53;2.15;;;1.90;;
16957;SDS011;8595;52.542;11.974;2023-10-31T14:15:20;3.28;;;2.03;;
16957;SDS011;8595;52.542;11.974;2023-10-31T14:17:48;2.10;;;1.95;;
16957;SDS011;8595;52.542;11.974;2023-10-31T14:20:16;1.60;;;1.48;;
16957;SDS011;8595;52.542;11.974;2023-10-31T14:22:46;4.03;;;1.80;;
16957;SDS011;8595;52.542;11.974;2023-10-31T14:25:14;2.47;;;2.00;;
16957;SDS011;8595;52.542;11.974;2023-10-31T14:27:41;3.33;;;1.50;;
16957;SDS011;8595;52.542;11.974;2023-10-31T14:30:10;3.17;;;1.63;;
16957;SDS011;8595;52.542;11.974;2023-10-31T14:32:37;2.58;;;1.20;;
16957;SDS011;8595;52.542;11.974;2023-10-31T14:35:04;3.13;;;2.15;;
16957;SDS011;8595;52.542;11.974;2023-10-31T14:37:32;3.45;;;2.92;;
16957;SDS011;8595;52.542;11.974;2023-10-31T14:40:00;6.10;;;2.88;;
16957;SDS011;8595;52.542;11.974;2023-10-31T14:42:28;12.70;;;6.90;;
16957;SDS011;8595;52.542;11.974;2023-10-31T14:44:54;2.90;;;2.10;;
16957;SDS011;8595;52.542;11.974;2023-10-31T14:47:23;2.13;;;1.90;;